Time,TemperatureF,DewpointF,PressureIn,WindDirection,WindDirectionDegrees,WindSpeedMPH,WindSpeedGustMPH,Humidity,HourlyPrecipIn,Conditions,Clouds,dailyrainin,SoftwareType,DateUTC
2013-03-03 00:02:00,56.3,47.8,29.82,North,0,0.0,0.0,73,0.00,,---,0.00,VWS V14.00,2013-03-03 08:02:00,
2013-03-03 00:07:00,56.3,48.1,29.82,North,0,0.0,0.0,74,0.00,,---,0.00,VWS V14.00,2013-03-03 08:07:00,
2013-03-03 00:12:00,56.3,47.8,29.82,West,270,0.0,0.0,73,0.00,,---,0.00,VWS V14.00,2013-03-03 08:12:00,
2013-03-03 00:17:00,56.1,47.6,29.79,NE,45,0.0,0.0,73,0.00,,---,0.00,VWS V14.00,2013-03-03 08:17:00,
2013-03-03 00:23:00,56.1,47.6,29.79,SW,225,0.0,0.0,73,0.00,,---,0.00,VWS V14.00,2013-03-03 08:23:00,
2013-03-03 00:28:00,56.3,48.1,29.79,SSE,158,2.5,2.5,74,0.00,,---,0.00,VWS V14.00,2013-03-03 08:28:00,
2013-03-03 00:33:00,56.3,48.5,29.82,ESE,112,0.0,0.9,75,0.00,,---,0.00,VWS V14.00,2013-03-03 08:33:00,
2013-03-03 00:39:00,56.3,48.5,29.82,SSE,158,1.6,1.6,75,0.00,,---,0.00,VWS V14.00,2013-03-03 08:39:00,
2013-03-03 00:44:00,56.3,48.5,29.82,SSE,158,0.0,0.9,75,0.00,,---,0.00,VWS V14.00,2013-03-03 08:44:00,
2013-03-03 00:49:00,56.3,48.5,29.79,SSE,158,0.0,0.9,75,0.00,,---,0.00,VWS V14.00,2013-03-03 08:49:00,
2013-03-03 00:54:00,56.1,48.7,29.79,SSW,202,0.0,1.6,76,0.00,,---,0.00,VWS V14.00,2013-03-03 08:54:00,
2013-03-03 00:59:00,56.1,48.7,29.79,ESE,112,2.2,2.2,76,0.00,,---,0.00,VWS V14.00,2013-03-03 08:59:00,
2013-03-03 01:05:00,56.3,48.8,29.79,SE,135,0.9,2.5,76,0.00,,---,0.00,VWS V14.00,2013-03-03 09:05:00,
2013-03-03 01:10:00,56.1,48.7,29.79,SSW,202,0.0,0.0,76,0.00,,---,0.00,VWS V14.00,2013-03-03 09:10:00,
2013-03-03 01:16:00,56.1,49.0,29.79,SSE,158,2.0,2.7,77,0.00,,---,0.00,VWS V14.00,2013-03-03 09:16:00,
2013-03-03 01:21:00,55.9,48.8,29.79,SSE,158,0.0,1.3,77,0.00,,---,0.00,VWS V14.00,2013-03-03 09:21:00,
2013-03-03 01:26:00,56.1,49.0,29.79,South,180,2.0,2.0,77,0.00,,---,0.00,VWS V14.00,2013-03-03 09:26:00,
2013-03-03 01:32:00,56.1,49.0,29.79,North,0,0.0,0.0,77,0.00,,---,0.00,VWS V14.00,2013-03-03 09:32:00,
2013-03-03 01:37:00,56.1,49.0,29.79,SE,135,2.5,2.7,77,0.00,,---,0.00,VWS V14.00,2013-03-03 09:37:00,
2013-03-03 01:42:00,56.1,49.4,29.79,SE,135,1.1,2.0,78,0.00,,---,0.00,VWS V14.00,2013-03-03 09:42:00,
2013-03-03 01:48:00,56.1,49.4,29.79,ESE,112,0.0,2.0,78,0.00,,---,0.00,VWS V14.00,2013-03-03 09:48:00,
2013-03-03 01:53:00,56.1,49.4,29.79,SSW,202,0.0,1.6,78,0.00,,---,0.00,VWS V14.00,2013-03-03 09:53:00,
2013-03-03 01:58:00,56.1,49.4,29.79,South,180,0.0,1.1,78,0.00,,---,0.00,VWS V14.00,2013-03-03 09:58:00,
2013-03-03 02:04:00,55.9,49.2,29.79,SE,135,0.0,0.0,78,0.00,,---,0.00,VWS V14.00,2013-03-03 10:04:00,
2013-03-03 02:09:00,56.1,49.4,29.79,SE,135,0.0,0.0,78,0.00,,---,0.00,VWS V14.00,2013-03-03 10:09:00,
2013-03-03 02:14:00,55.9,49.2,29.79,ESE,112,0.0,0.0,78,0.00,,---,0.00,VWS V14.00,2013-03-03 10:14:00,
2013-03-03 02:20:00,55.9,49.2,29.79,NW,315,0.0,0.0,78,0.00,,---,0.00,VWS V14.00,2013-03-03 10:20:00,
2013-03-03 02:25:00,55.9,49.2,29.79,NW,315,0.0,2.5,78,0.00,,---,0.00,VWS V14.00,2013-03-03 10:25:00,
2013-03-03 02:31:00,55.8,49.0,29.79,West,270,4.3,4.3,78,0.00,,---,0.00,VWS V14.00,2013-03-03 10:31:00,
2013-03-03 02:37:00,55.6,48.8,29.79,NW,315,2.7,2.7,78,0.00,,---,0.00,VWS V14.00,2013-03-03 10:37:00,
2013-03-03 02:42:00,55.6,48.8,29.79,ENE,68,1.3,1.6,78,0.00,,---,0.00,VWS V14.00,2013-03-03 10:42:00,
2013-03-03 02:47:00,55.4,49.0,29.79,WNW,292,0.0,0.9,79,0.00,,---,0.00,VWS V14.00,2013-03-03 10:47:00,
2013-03-03 02:53:00,55.2,48.8,29.79,WNW,292,0.0,0.0,79,0.00,,---,0.00,VWS V14.00,2013-03-03 10:53:00,
2013-03-03 02:58:00,55.2,48.8,29.79,SSE,158,2.2,2.5,79,0.00,,---,0.00,VWS V14.00,2013-03-03 10:58:00,
2013-03-03 03:03:00,55.2,49.2,29.76,SSE,158,0.9,0.9,80,0.00,,---,0.00,VWS V14.00,2013-03-03 11:03:00,
2013-03-03 03:08:00,55.4,49.0,29.76,SE,135,1.1,1.3,79,0.00,,---,0.00,VWS V14.00,2013-03-03 11:08:00,
2013-03-03 03:13:00,55.4,49.0,29.76,SSE,158,2.0,2.7,79,0.00,,---,0.00,VWS V14.00,2013-03-03 11:13:00,
2013-03-03 03:18:00,55.4,49.0,29.76,SSE,158,3.1,3.1,79,0.00,,---,0.00,VWS V14.00,2013-03-03 11:18:00,
2013-03-03 03:24:00,55.2,49.2,29.76,SSE,158,2.7,2.7,80,0.00,,---,0.00,VWS V14.00,2013-03-03 11:24:00,
2013-03-03 03:29:00,55.4,49.3,29.76,ESE,112,1.3,1.6,80,0.00,,---,0.00,VWS V14.00,2013-03-03 11:29:00,
2013-03-03 03:35:00,55.4,49.3,29.76,North,0,1.6,2.5,80,0.00,,---,0.00,VWS V14.00,2013-03-03 11:35:00,
2013-03-03 03:40:00,55.4,49.3,29.76,NW,315,1.1,2.2,80,0.00,,---,0.00,VWS V14.00,2013-03-03 11:40:00,
2013-03-03 03:45:00,55.4,49.3,29.76,NW,315,3.6,3.6,80,0.00,,---,0.00,VWS V14.00,2013-03-03 11:45:00,
2013-03-03 03:50:00,55.2,49.2,29.76,NNW,338,2.9,3.1,80,0.00,,---,0.00,VWS V14.00,2013-03-03 11:50:00,
2013-03-03 03:55:00,55.0,48.7,29.76,NW,315,3.1,3.1,79,0.00,,---,0.00,VWS V14.00,2013-03-03 11:55:00,
2013-03-03 04:01:00,54.9,48.5,29.76,NW,315,0.9,1.1,79,0.00,,---,0.00,VWS V14.00,2013-03-03 12:01:00,
2013-03-03 04:06:00,54.7,48.3,29.76,WNW,292,1.1,2.2,79,0.00,,---,0.00,VWS V14.00,2013-03-03 12:06:00,
2013-03-03 04:11:00,54.7,48.3,29.76,SSE,158,2.2,2.2,79,0.00,,---,0.00,VWS V14.00,2013-03-03 12:11:00,
2013-03-03 04:16:00,54.5,48.1,29.76,ESE,112,3.6,3.6,79,0.00,,---,0.00,VWS V14.00,2013-03-03 12:16:00,
2013-03-03 04:21:00,54.5,48.5,29.76,ESE,112,2.5,2.5,80,0.00,,---,0.00,VWS V14.00,2013-03-03 12:21:00,
2013-03-03 04:27:00,54.5,48.5,29.76,SSE,158,4.0,4.0,80,0.00,,---,0.00,VWS V14.00,2013-03-03 12:27:00,
2013-03-03 04:32:00,54.5,48.1,29.76,SSE,158,3.1,5.8,79,0.00,,---,0.00,VWS V14.00,2013-03-03 12:32:00,
2013-03-03 04:37:00,54.3,48.3,29.76,SSE,158,2.2,2.5,80,0.00,,---,0.00,VWS V14.00,2013-03-03 12:37:00,
2013-03-03 04:42:00,54.5,48.5,29.76,ESE,112,0.0,0.0,80,0.00,,---,0.00,VWS V14.00,2013-03-03 12:42:00,
2013-03-03 04:47:00,54.3,48.3,29.76,SE,135,2.0,2.0,80,0.00,,---,0.00,VWS V14.00,2013-03-03 12:47:00,
2013-03-03 04:53:00,54.5,48.5,29.76,NW,315,0.0,0.0,80,0.00,,---,0.00,VWS V14.00,2013-03-03 12:53:00,
2013-03-03 04:58:00,54.3,48.3,29.76,SSW,202,1.6,2.2,80,0.00,,---,0.00,VWS V14.00,2013-03-03 12:58:00,
2013-03-03 05:03:00,54.1,48.1,29.76,SSE,158,1.1,1.1,80,0.00,,---,0.00,VWS V14.00,2013-03-03 13:03:00,
2013-03-03 05:08:00,54.1,48.1,29.76,SSW,202,0.0,0.0,80,0.00,,---,0.00,VWS V14.00,2013-03-03 13:08:00,
2013-03-03 05:13:00,54.1,48.5,29.76,WSW,248,0.0,0.0,81,0.00,,---,0.00,VWS V14.00,2013-03-03 13:13:00,
2013-03-03 05:18:00,54.0,48.3,29.76,South,180,0.0,1.1,81,0.00,,---,0.00,VWS V14.00,2013-03-03 13:18:00,
2013-03-03 05:23:00,54.1,48.5,29.76,ESE,112,1.3,2.7,81,0.00,,---,0.00,VWS V14.00,2013-03-03 13:23:00,
2013-03-03 05:28:00,54.1,48.5,29.76,South,180,0.0,1.1,81,0.00,,---,0.00,VWS V14.00,2013-03-03 13:28:00,
2013-03-03 05:34:00,54.1,48.5,29.76,South,180,2.2,2.2,81,0.00,,---,0.00,VWS V14.00,2013-03-03 13:34:00,
2013-03-03 05:39:00,54.0,48.3,29.76,East,90,0.0,0.0,81,0.00,,---,0.00,VWS V14.00,2013-03-03 13:39:00,
2013-03-03 05:44:00,54.0,48.3,29.76,East,90,0.0,0.0,81,0.00,,---,0.00,VWS V14.00,2013-03-03 13:44:00,
2013-03-03 05:49:00,54.0,48.3,29.76,WNW,292,0.0,0.0,81,0.00,,---,0.00,VWS V14.00,2013-03-03 13:49:00,
2013-03-03 05:54:00,53.8,48.1,29.76,ESE,112,0.0,0.0,81,0.00,,---,0.00,VWS V14.00,2013-03-03 13:54:00,
2013-03-03 06:00:00,53.6,47.9,29.76,SW,225,0.0,0.0,81,0.00,,---,0.00,VWS V14.00,2013-03-03 14:00:00,
2013-03-03 06:06:00,53.6,48.2,29.76,ESE,112,0.0,0.0,82,0.00,,---,0.00,VWS V14.00,2013-03-03 14:06:00,
2013-03-03 06:11:00,53.4,48.1,29.76,West,270,0.0,0.0,82,0.00,,---,0.00,VWS V14.00,2013-03-03 14:11:00,
2013-03-03 06:16:00,53.2,47.9,29.76,NW,315,0.0,0.0,82,0.00,,---,0.00,VWS V14.00,2013-03-03 14:16:00,
2013-03-03 06:21:00,53.2,47.9,29.79,NW,315,0.0,0.0,82,0.00,,---,0.00,VWS V14.00,2013-03-03 14:21:00,
2013-03-03 06:26:00,53.1,47.7,29.79,NW,315,0.0,0.0,82,0.00,,---,0.00,VWS V14.00,2013-03-03 14:26:00,
2013-03-03 06:32:00,53.1,47.7,29.76,WSW,248,0.0,0.0,82,0.00,,---,0.00,VWS V14.00,2013-03-03 14:32:00,
2013-03-03 06:37:00,53.1,47.7,29.76,WSW,248,1.3,1.6,82,0.00,,---,0.00,VWS V14.00,2013-03-03 14:37:00,
2013-03-03 06:42:00,53.1,48.0,29.76,SW,225,0.0,0.0,83,0.00,,---,0.00,VWS V14.00,2013-03-03 14:42:00,
2013-03-03 06:47:00,53.1,48.0,29.79,NW,315,1.1,1.1,83,0.00,,---,0.00,VWS V14.00,2013-03-03 14:47:00,
2013-03-03 06:52:00,53.1,48.0,29.79,NW,315,0.0,0.0,83,0.00,,---,0.00,VWS V14.00,2013-03-03 14:52:00,
2013-03-03 06:57:00,53.1,48.0,29.79,NW,315,2.5,2.5,83,0.00,,---,0.00,VWS V14.00,2013-03-03 14:57:00,
2013-03-03 07:03:00,53.1,48.0,29.79,WNW,292,1.3,2.0,83,0.00,,---,0.00,VWS V14.00,2013-03-03 15:03:00,
2013-03-03 07:08:00,53.1,48.0,29.79,WNW,292,0.0,0.0,83,0.00,,---,0.00,VWS V14.00,2013-03-03 15:08:00,
2013-03-03 07:13:00,53.1,48.0,29.79,West,270,0.0,0.0,83,0.00,,---,0.00,VWS V14.00,2013-03-03 15:13:00,
2013-03-03 07:18:00,53.2,48.2,29.79,West,270,0.0,0.0,83,0.00,,---,0.00,VWS V14.00,2013-03-03 15:18:00,
2013-03-03 07:24:00,53.2,48.5,29.79,NW,315,0.0,0.0,84,0.00,,---,0.00,VWS V14.00,2013-03-03 15:24:00,
2013-03-03 07:30:00,53.4,48.7,29.79,NNE,22,0.0,0.0,84,0.00,,---,0.00,VWS V14.00,2013-03-03 15:30:00,
2013-03-03 07:35:00,53.6,48.6,29.82,East,90,0.0,0.0,83,0.00,,---,0.00,VWS V14.00,2013-03-03 15:35:00,
2013-03-03 07:41:00,53.8,48.8,29.82,ESE,112,1.1,1.3,83,0.00,,---,0.00,VWS V14.00,2013-03-03 15:41:00,
2013-03-03 07:46:00,54.0,48.9,29.82,NW,315,0.0,0.0,83,0.00,,---,0.00,VWS V14.00,2013-03-03 15:46:00,
2013-03-03 07:51:00,54.1,49.1,29.82,South,180,0.0,0.0,83,0.00,,---,0.00,VWS V14.00,2013-03-03 15:51:00,
2013-03-03 07:56:00,54.3,49.6,29.82,SSW,202,0.0,1.6,84,0.00,,---,0.00,VWS V14.00,2013-03-03 15:56:00,
2013-03-03 08:01:00,54.5,49.8,29.82,SSE,158,1.6,1.6,84,0.00,,---,0.00,VWS V14.00,2013-03-03 16:01:00,
2013-03-03 08:07:00,54.7,50.0,29.82,ESE,112,2.5,2.5,84,0.00,,---,0.00,VWS V14.00,2013-03-03 16:07:00,
2013-03-03 08:12:00,54.9,50.1,29.82,WNW,292,2.5,2.5,84,0.00,,---,0.00,VWS V14.00,2013-03-03 16:12:00,
2013-03-03 08:17:00,55.0,50.3,29.79,SE,135,3.8,3.8,84,0.00,,---,0.00,VWS V14.00,2013-03-03 16:17:00,
2013-03-03 08:22:00,55.4,50.3,29.79,ESE,112,0.0,0.0,83,0.00,,---,0.00,VWS V14.00,2013-03-03 16:22:00,
2013-03-03 08:27:00,55.6,50.5,29.79,SSE,158,2.9,2.9,83,0.00,,---,0.00,VWS V14.00,2013-03-03 16:27:00,
2013-03-03 08:32:00,55.8,50.7,29.79,ESE,112,2.5,2.5,83,0.00,,---,0.00,VWS V14.00,2013-03-03 16:32:00,
2013-03-03 08:37:00,55.9,50.5,29.79,East,90,2.0,2.9,82,0.00,,---,0.00,VWS V14.00,2013-03-03 16:37:00,
2013-03-03 08:42:00,56.1,50.7,29.79,East,90,0.0,1.1,82,0.00,,---,0.00,VWS V14.00,2013-03-03 16:42:00,
2013-03-03 08:47:00,56.5,51.1,29.79,ESE,112,2.7,2.7,82,0.00,,---,0.00,VWS V14.00,2013-03-03 16:47:00,
2013-03-03 08:52:00,56.8,51.4,29.79,East,90,1.1,1.1,82,0.00,,---,0.00,VWS V14.00,2013-03-03 16:52:00,
2013-03-03 08:57:00,57.7,52.0,29.79,WSW,248,2.7,2.7,81,0.00,,---,0.00,VWS V14.00,2013-03-03 16:57:00,
2013-03-03 09:03:00,58.5,52.7,29.82,WSW,248,2.5,2.5,81,0.00,,---,0.00,VWS V14.00,2013-03-03 17:03:00,
2013-03-03 09:09:00,59.2,52.7,29.82,WNW,292,2.5,2.5,79,0.00,,---,0.00,VWS V14.00,2013-03-03 17:09:00,
2013-03-03 09:14:00,59.5,52.3,29.82,WNW,292,3.1,3.1,77,0.00,,---,0.00,VWS V14.00,2013-03-03 17:14:00,
2013-03-03 09:20:00,59.7,51.8,29.82,WSW,248,0.9,0.9,75,0.00,,---,0.00,VWS V14.00,2013-03-03 17:20:00,
2013-03-03 09:26:00,59.5,50.9,29.82,West,270,4.3,6.0,73,0.00,,---,0.00,VWS V14.00,2013-03-03 17:26:00,
2013-03-03 09:31:00,59.4,50.3,29.82,NW,315,9.2,9.2,72,0.00,,---,0.00,VWS V14.00,2013-03-03 17:31:00,
2013-03-03 09:36:00,59.4,50.3,29.82,NNW,338,5.6,6.5,72,0.00,,---,0.00,VWS V14.00,2013-03-03 17:36:00,
2013-03-03 09:42:00,59.4,50.0,29.82,NW,315,5.6,6.3,71,0.00,,---,0.00,VWS V14.00,2013-03-03 17:42:00,
2013-03-03 09:47:00,59.4,50.0,29.82,NW,315,3.6,5.4,71,0.00,,---,0.00,VWS V14.00,2013-03-03 17:47:00,
2013-03-03 09:53:00,59.4,49.6,29.82,NNW,338,3.4,4.3,70,0.00,,---,0.00,VWS V14.00,2013-03-03 17:53:00,
2013-03-03 09:58:00,59.4,49.6,29.82,West,270,4.3,4.9,70,0.00,,---,0.00,VWS V14.00,2013-03-03 17:58:00,
2013-03-03 10:03:00,59.5,49.8,29.82,NW,315,2.9,2.9,70,0.00,,---,0.00,VWS V14.00,2013-03-03 18:03:00,
2013-03-03 10:09:00,59.7,49.9,29.82,WNW,292,3.8,6.0,70,0.00,,---,0.00,VWS V14.00,2013-03-03 18:09:00,
2013-03-03 10:14:00,59.7,49.5,29.82,NNW,338,3.1,5.4,69,0.00,,---,0.00,VWS V14.00,2013-03-03 18:14:00,
2013-03-03 10:19:00,59.7,49.5,29.82,NNW,338,6.0,6.0,69,0.00,,---,0.00,VWS V14.00,2013-03-03 18:19:00,
2013-03-03 10:24:00,59.9,49.7,29.82,NNW,338,6.5,6.5,69,0.00,,---,0.00,VWS V14.00,2013-03-03 18:24:00,
2013-03-03 10:31:00,60.4,50.2,29.82,NNW,338,3.8,7.8,69,0.00,,---,0.00,VWS V14.00,2013-03-03 18:31:00,
2013-03-03 10:36:00,60.6,50.0,29.82,NW,315,4.0,7.4,68,0.00,,---,0.00,VWS V14.00,2013-03-03 18:36:00,
2013-03-03 10:42:00,61.0,50.0,29.82,NW,315,4.7,4.7,67,0.00,,---,0.00,VWS V14.00,2013-03-03 18:42:00,
2013-03-03 10:47:00,61.9,50.8,29.82,SSE,158,3.4,3.4,67,0.00,,---,0.00,VWS V14.00,2013-03-03 18:47:00,
2013-03-03 10:52:00,62.6,50.7,29.82,NW,315,2.7,4.9,65,0.00,,---,0.00,VWS V14.00,2013-03-03 18:52:00,
2013-03-03 10:57:00,63.3,51.4,29.82,NW,315,2.7,3.1,65,0.00,,---,0.00,VWS V14.00,2013-03-03 18:57:00,
2013-03-03 11:03:00,64.2,52.2,29.82,WNW,292,6.0,8.5,65,0.00,,---,0.00,VWS V14.00,2013-03-03 19:03:00,
2013-03-03 11:08:00,64.9,51.6,29.82,NNW,338,4.3,4.3,62,0.00,,---,0.00,VWS V14.00,2013-03-03 19:08:00,
2013-03-03 11:13:00,65.5,51.7,29.82,NW,315,4.3,8.7,61,0.00,,---,0.00,VWS V14.00,2013-03-03 19:13:00,
2013-03-03 11:18:00,66.0,52.2,29.82,WNW,292,5.4,5.4,61,0.00,,---,0.00,VWS V14.00,2013-03-03 19:18:00,
2013-03-03 11:23:00,66.2,51.5,29.82,NW,315,4.3,4.9,59,0.00,,---,0.00,VWS V14.00,2013-03-03 19:23:00,
2013-03-03 11:29:00,66.0,50.4,29.82,WNW,292,2.5,4.3,57,0.00,,---,0.00,VWS V14.00,2013-03-03 19:29:00,
2013-03-03 11:35:00,66.6,50.9,29.82,NW,315,7.8,8.1,57,0.00,,---,0.00,VWS V14.00,2013-03-03 19:35:00,
2013-03-03 11:40:00,66.6,49.9,29.82,SW,225,7.6,7.6,55,0.00,,---,0.00,VWS V14.00,2013-03-03 19:40:00,
2013-03-03 11:46:00,66.9,50.7,29.82,NNW,338,10.3,10.3,56,0.00,,---,0.00,VWS V14.00,2013-03-03 19:46:00,
2013-03-03 11:51:00,68.7,52.4,29.82,WNW,292,8.5,8.5,56,0.00,,---,0.00,VWS V14.00,2013-03-03 19:51:00,
2013-03-03 11:56:00,69.1,51.8,29.82,NNW,338,7.8,7.8,54,0.00,,---,0.00,VWS V14.00,2013-03-03 19:56:00,
2013-03-03 12:01:00,68.7,50.4,29.82,NW,315,3.4,3.4,52,0.00,,---,0.00,VWS V14.00,2013-03-03 20:01:00,
2013-03-03 12:07:00,69.4,51.1,29.79,NNW,338,4.0,9.0,52,0.00,,---,0.00,VWS V14.00,2013-03-03 20:07:00,
2013-03-03 12:12:00,70.3,51.9,29.79,WNW,292,2.7,5.8,52,0.00,,---,0.00,VWS V14.00,2013-03-03 20:12:00,
2013-03-03 12:17:00,70.0,50.0,29.79,NNW,338,4.0,4.9,49,0.00,,---,0.00,VWS V14.00,2013-03-03 20:17:00,
2013-03-03 12:22:00,71.2,51.7,29.79,NNW,338,8.1,8.1,50,0.00,,---,0.00,VWS V14.00,2013-03-03 20:22:00,
2013-03-03 12:28:00,71.6,50.9,29.79,NW,315,6.5,8.5,48,0.00,,---,0.00,VWS V14.00,2013-03-03 20:28:00,
2013-03-03 12:34:00,70.5,48.2,29.79,NW,315,7.4,8.7,45,0.00,,---,0.00,VWS V14.00,2013-03-03 20:34:00,
2013-03-03 12:39:00,68.2,45.5,29.79,NW,315,5.4,7.6,44,0.00,,---,0.00,VWS V14.00,2013-03-03 20:39:00,
2013-03-03 12:44:00,68.4,46.8,29.79,WNW,292,6.0,10.3,46,0.00,,---,0.00,VWS V14.00,2013-03-03 20:44:00,
2013-03-03 12:49:00,69.1,47.5,29.79,NW,315,5.4,8.1,46,0.00,,---,0.00,VWS V14.00,2013-03-03 20:49:00,
2013-03-03 12:55:00,69.4,47.2,29.79,NW,315,7.8,10.1,45,0.00,,---,0.00,VWS V14.00,2013-03-03 20:55:00,
2013-03-03 13:00:00,69.6,47.4,29.79,NW,315,7.4,7.8,45,0.00,,---,0.00,VWS V14.00,2013-03-03 21:00:00,
2013-03-03 13:06:00,70.3,48.0,29.79,NW,315,9.8,9.8,45,0.00,,---,0.00,VWS V14.00,2013-03-03 21:06:00,
2013-03-03 13:11:00,69.6,46.8,29.79,WNW,292,8.5,9.8,44,0.00,,---,0.00,VWS V14.00,2013-03-03 21:11:00,
2013-03-03 13:18:00,69.3,46.4,29.79,NNW,338,6.5,8.1,44,0.00,,---,0.00,VWS V14.00,2013-03-03 21:18:00,
2013-03-03 13:23:00,69.1,46.3,29.79,NNW,338,6.5,6.5,44,0.00,,---,0.00,VWS V14.00,2013-03-03 21:23:00,
2013-03-03 13:28:00,69.4,46.6,29.79,NNW,338,9.8,9.8,44,0.00,,---,0.00,VWS V14.00,2013-03-03 21:28:00,
2013-03-03 13:34:00,69.8,46.3,29.76,NNW,338,4.9,9.6,43,0.00,,---,0.00,VWS V14.00,2013-03-03 21:34:00,
2013-03-03 13:39:00,70.3,47.4,29.76,NW,315,8.5,10.7,44,0.00,,---,0.00,VWS V14.00,2013-03-03 21:39:00,
2013-03-03 13:44:00,70.0,46.5,29.76,NNW,338,7.4,9.6,43,0.00,,---,0.00,VWS V14.00,2013-03-03 21:44:00,
2013-03-03 13:49:00,70.2,47.2,29.76,NW,315,7.4,7.4,44,0.00,,---,0.00,VWS V14.00,2013-03-03 21:49:00,
2013-03-03 13:56:00,70.7,47.7,29.76,NNW,338,4.0,9.8,44,0.00,,---,0.00,VWS V14.00,2013-03-03 21:56:00,
2013-03-03 14:01:00,70.9,47.3,29.76,NNW,338,4.3,10.7,43,0.00,,---,0.00,VWS V14.00,2013-03-03 22:01:00,
2013-03-03 14:06:00,70.5,47.0,29.76,NW,315,8.5,8.5,43,0.00,,---,0.00,VWS V14.00,2013-03-03 22:06:00,
2013-03-03 14:11:00,70.2,46.6,29.76,NW,315,10.5,10.5,43,0.00,,---,0.00,VWS V14.00,2013-03-03 22:11:00,
2013-03-03 14:17:00,70.3,46.8,29.76,WNW,292,13.4,13.4,43,0.00,,---,0.00,VWS V14.00,2013-03-03 22:17:00,
2013-03-03 14:22:00,70.0,45.9,29.76,WNW,292,8.1,8.1,42,0.00,,---,0.00,VWS V14.00,2013-03-03 22:22:00,
2013-03-03 14:27:00,70.2,46.6,29.76,WNW,292,7.2,7.2,43,0.00,,---,0.00,VWS V14.00,2013-03-03 22:27:00,
2013-03-03 14:33:00,70.0,46.5,29.76,WNW,292,4.9,8.5,43,0.00,,---,0.00,VWS V14.00,2013-03-03 22:33:00,
2013-03-03 14:38:00,69.8,45.7,29.76,NW,315,4.9,4.9,42,0.00,,---,0.00,VWS V14.00,2013-03-03 22:38:00,
2013-03-03 14:44:00,70.2,46.6,29.76,NW,315,6.0,6.0,43,0.00,,---,0.00,VWS V14.00,2013-03-03 22:44:00,
2013-03-03 14:50:00,70.3,46.8,29.76,WNW,292,6.0,11.4,43,0.00,,---,0.00,VWS V14.00,2013-03-03 22:50:00,
2013-03-03 14:55:00,70.2,46.0,29.76,North,0,7.4,11.0,42,0.00,,---,0.00,VWS V14.00,2013-03-03 22:55:00,
2013-03-03 15:00:00,70.0,45.9,29.76,NNW,338,6.5,6.5,42,0.00,,---,0.00,VWS V14.00,2013-03-03 23:00:00,
2013-03-03 15:05:00,69.4,46.0,29.76,NW,315,10.1,10.1,43,0.00,,---,0.00,VWS V14.00,2013-03-03 23:05:00,
2013-03-03 15:10:00,69.4,46.0,29.76,NW,315,8.5,8.5,43,0.00,,---,0.00,VWS V14.00,2013-03-03 23:10:00,
2013-03-03 15:16:00,68.9,45.5,29.76,NNW,338,6.5,12.5,43,0.00,,---,0.00,VWS V14.00,2013-03-03 23:16:00,
2013-03-03 15:21:00,69.1,45.7,29.76,NNW,338,8.7,8.7,43,0.00,,---,0.00,VWS V14.00,2013-03-03 23:21:00,
2013-03-03 15:26:00,68.7,46.0,29.76,NNW,338,2.5,6.0,44,0.00,,---,0.00,VWS V14.00,2013-03-03 23:26:00,
2013-03-03 15:31:00,68.2,44.9,29.76,West,270,6.3,6.3,43,0.00,,---,0.00,VWS V14.00,2013-03-03 23:31:00,
2013-03-03 15:36:00,68.0,45.3,29.76,NNW,338,11.4,11.4,44,0.00,,---,0.00,VWS V14.00,2013-03-03 23:36:00,
2013-03-03 15:42:00,67.8,45.1,29.76,WNW,292,7.2,7.2,44,0.00,,---,0.00,VWS V14.00,2013-03-03 23:42:00,
2013-03-03 15:47:00,67.1,44.5,29.76,WNW,292,3.8,6.0,44,0.00,,---,0.00,VWS V14.00,2013-03-03 23:47:00,
2013-03-03 15:52:00,66.7,44.8,29.76,WNW,292,5.6,7.6,45,0.00,,---,0.00,VWS V14.00,2013-03-03 23:52:00,
2013-03-03 15:57:00,66.0,44.7,29.76,NW,315,7.8,8.5,46,0.00,,---,0.00,VWS V14.00,2013-03-03 23:57:00,
2013-03-03 16:02:00,65.7,44.3,29.76,WNW,292,3.8,4.3,46,0.00,,---,0.00,VWS V14.00,2013-03-04 00:02:00,
2013-03-03 16:07:00,65.3,44.0,29.76,WSW,248,5.4,5.4,46,0.00,,---,0.00,VWS V14.00,2013-03-04 00:07:00,
2013-03-03 16:12:00,64.9,44.2,29.76,NW,315,3.8,3.8,47,0.00,,---,0.00,VWS V14.00,2013-03-04 00:12:00,
2013-03-03 16:17:00,63.9,43.8,29.76,NW,315,4.7,5.6,48,0.00,,---,0.00,VWS V14.00,2013-03-04 00:17:00,
2013-03-03 16:22:00,63.1,43.2,29.76,WNW,292,5.6,5.6,48,0.00,,---,0.00,VWS V14.00,2013-03-04 00:22:00,
2013-03-03 16:27:00,62.1,42.7,29.76,West,270,7.4,7.4,49,0.00,,---,0.00,VWS V14.00,2013-03-04 00:27:00,
2013-03-03 16:32:00,61.3,42.0,29.76,WNW,292,5.8,5.8,49,0.00,,---,0.00,VWS V14.00,2013-03-04 00:32:00,
2013-03-03 16:38:00,60.3,42.1,29.76,NW,315,11.2,11.2,51,0.00,,---,0.00,VWS V14.00,2013-03-04 00:38:00,
2013-03-03 16:44:00,59.2,41.6,29.76,NW,315,8.1,12.3,52,0.00,,---,0.00,VWS V14.00,2013-03-04 00:44:00,
2013-03-03 16:49:00,58.6,42.1,29.76,WNW,292,12.8,12.8,54,0.00,,---,0.00,VWS V14.00,2013-03-04 00:49:00,
2013-03-03 16:54:00,58.3,42.2,29.76,NNW,338,9.0,9.0,55,0.00,,---,0.00,VWS V14.00,2013-03-04 00:54:00,
2013-03-03 17:00:00,57.7,42.2,29.76,WNW,292,6.0,9.4,56,0.00,,---,0.00,VWS V14.00,2013-03-04 01:00:00,
2013-03-03 17:05:00,57.6,42.0,29.76,NW,315,6.9,6.9,56,0.00,,---,0.00,VWS V14.00,2013-03-04 01:05:00,
2013-03-03 17:10:00,57.0,42.4,29.76,NW,315,3.6,10.5,58,0.00,,---,0.00,VWS V14.00,2013-03-04 01:10:00,
2013-03-03 17:16:00,56.7,42.1,29.76,WNW,292,4.3,7.6,58,0.00,,---,0.00,VWS V14.00,2013-03-04 01:16:00,
2013-03-03 17:22:00,56.7,42.5,29.76,WNW,292,2.5,6.3,59,0.00,,---,0.00,VWS V14.00,2013-03-04 01:22:00,
2013-03-03 17:27:00,56.3,42.2,29.76,NW,315,7.6,10.5,59,0.00,,---,0.00,VWS V14.00,2013-03-04 01:27:00,
2013-03-03 17:33:00,55.8,42.1,29.76,West,270,4.0,4.3,60,0.00,,---,0.00,VWS V14.00,2013-03-04 01:33:00,
2013-03-03 17:38:00,55.6,41.9,29.76,NNW,338,7.2,7.2,60,0.00,,---,0.00,VWS V14.00,2013-03-04 01:38:00,
2013-03-03 17:44:00,55.6,42.4,29.76,WNW,292,2.0,4.9,61,0.00,,---,0.00,VWS V14.00,2013-03-04 01:44:00,
2013-03-03 17:49:00,55.4,42.2,29.76,WNW,292,6.3,6.3,61,0.00,,---,0.00,VWS V14.00,2013-03-04 01:49:00,
2013-03-03 17:55:00,54.9,42.1,29.76,WNW,292,4.0,6.5,62,0.00,,---,0.00,VWS V14.00,2013-03-04 01:55:00,
2013-03-03 18:00:00,54.7,41.9,29.76,WNW,292,1.6,3.8,62,0.00,,---,0.00,VWS V14.00,2013-03-04 02:00:00,
2013-03-03 18:06:00,54.5,41.8,29.79,NW,315,2.9,3.6,62,0.00,,---,0.00,VWS V14.00,2013-03-04 02:06:00,
2013-03-03 18:11:00,54.3,42.0,29.79,WNW,292,3.1,3.4,63,0.00,,---,0.00,VWS V14.00,2013-03-04 02:11:00,
2013-03-03 18:16:00,54.3,42.0,29.79,WSW,248,4.7,4.7,63,0.00,,---,0.00,VWS V14.00,2013-03-04 02:16:00,
2013-03-03 18:21:00,54.1,42.2,29.79,NNW,338,2.5,4.3,64,0.00,,---,0.00,VWS V14.00,2013-03-04 02:21:00,
2013-03-03 18:26:00,54.1,42.2,29.79,NNE,22,1.3,1.3,64,0.00,,---,0.00,VWS V14.00,2013-03-04 02:26:00,
2013-03-03 18:32:00,53.8,41.9,29.79,WSW,248,0.0,1.3,64,0.00,,---,0.00,VWS V14.00,2013-03-04 02:32:00,
2013-03-03 18:37:00,53.6,42.1,29.79,NNW,338,3.6,3.6,65,0.00,,---,0.00,VWS V14.00,2013-03-04 02:37:00,
2013-03-03 18:43:00,53.6,42.1,29.79,West,270,2.5,2.9,65,0.00,,---,0.00,VWS V14.00,2013-03-04 02:43:00,
2013-03-03 18:49:00,53.4,42.4,29.79,SSW,202,1.6,2.5,66,0.00,,---,0.00,VWS V14.00,2013-03-04 02:49:00,
2013-03-03 18:54:00,53.4,42.4,29.79,NW,315,1.1,3.4,66,0.00,,---,0.00,VWS V14.00,2013-03-04 02:54:00,
2013-03-03 18:59:00,53.2,42.6,29.79,NW,315,0.0,0.0,67,0.00,,---,0.00,VWS V14.00,2013-03-04 02:59:00,
2013-03-03 19:04:00,53.1,42.4,29.79,NNW,338,2.0,2.0,67,0.00,,---,0.00,VWS V14.00,2013-03-04 03:04:00,
2013-03-03 19:10:00,53.1,42.4,29.79,WSW,248,0.0,0.0,67,0.00,,---,0.00,VWS V14.00,2013-03-04 03:10:00,
2013-03-03 19:16:00,53.1,42.8,29.79,WNW,292,2.0,2.5,68,0.00,,---,0.00,VWS V14.00,2013-03-04 03:16:00,
2013-03-03 19:21:00,52.9,42.6,29.79,NW,315,3.1,3.1,68,0.00,,---,0.00,VWS V14.00,2013-03-04 03:21:00,
2013-03-03 19:26:00,52.7,42.5,29.79,WNW,292,3.6,3.8,68,0.00,,---,0.00,VWS V14.00,2013-03-04 03:26:00,
2013-03-03 19:31:00,52.5,42.3,29.79,WNW,292,2.9,3.8,68,0.00,,---,0.00,VWS V14.00,2013-03-04 03:31:00,
2013-03-03 19:36:00,52.3,42.1,29.79,WNW,292,3.1,3.6,68,0.00,,---,0.00,VWS V14.00,2013-03-04 03:36:00,
2013-03-03 19:41:00,52.2,41.9,29.79,NW,315,2.5,3.1,68,0.00,,---,0.00,VWS V14.00,2013-03-04 03:41:00,
2013-03-03 19:46:00,52.0,42.1,29.79,WSW,248,2.0,3.6,69,0.00,,---,0.00,VWS V14.00,2013-03-04 03:46:00,
2013-03-03 19:52:00,51.8,42.0,29.79,West,270,1.6,3.4,69,0.00,,---,0.00,VWS V14.00,2013-03-04 03:52:00,
2013-03-03 19:57:00,51.6,42.2,29.79,NW,315,2.7,3.1,70,0.00,,---,0.00,VWS V14.00,2013-03-04 03:57:00,
2013-03-03 20:02:00,51.6,42.2,29.79,WNW,292,2.7,2.7,70,0.00,,---,0.00,VWS V14.00,2013-03-04 04:02:00,
2013-03-03 20:07:00,51.3,41.5,29.79,SSW,202,1.3,2.2,69,0.00,,---,0.00,VWS V14.00,2013-03-04 04:07:00,
2013-03-03 20:13:00,51.3,41.8,29.79,WSW,248,1.6,2.5,70,0.00,,---,0.00,VWS V14.00,2013-03-04 04:13:00,
2013-03-03 20:18:00,51.3,41.8,29.79,SW,225,2.2,2.2,70,0.00,,---,0.00,VWS V14.00,2013-03-04 04:18:00,
2013-03-03 20:23:00,51.3,41.8,29.79,NW,315,2.9,3.1,70,0.00,,---,0.00,VWS V14.00,2013-03-04 04:23:00,
2013-03-03 20:28:00,51.1,41.7,29.79,South,180,0.0,0.0,70,0.00,,---,0.00,VWS V14.00,2013-03-04 04:28:00,
2013-03-03 20:34:00,50.9,41.5,29.79,WNW,292,0.0,0.0,70,0.00,,---,0.00,VWS V14.00,2013-03-04 04:34:00,
2013-03-03 20:39:00,50.7,41.7,29.79,West,270,1.1,1.1,71,0.00,,---,0.00,VWS V14.00,2013-03-04 04:39:00,
2013-03-03 20:44:00,50.7,41.7,29.79,NW,315,2.0,2.0,71,0.00,,---,0.00,VWS V14.00,2013-03-04 04:44:00,
2013-03-03 20:49:00,50.7,41.7,29.79,WNW,292,2.2,2.2,71,0.00,,---,0.00,VWS V14.00,2013-03-04 04:49:00,
2013-03-03 20:55:00,50.5,41.5,29.79,West,270,2.7,5.6,71,0.00,,---,0.00,VWS V14.00,2013-03-04 04:55:00,
2013-03-03 21:00:00,50.2,41.5,29.79,WNW,292,3.6,4.9,72,0.00,,---,0.00,VWS V14.00,2013-03-04 05:00:00,
2013-03-03 21:01:00,50.2,41.2,29.79,NW,315,2.7,3.8,71,0.00,,---,0.00,VWS V14.00,2013-03-04 05:01:00,
2013-03-03 21:02:00,50.2,41.5,29.79,NNW,338,3.4,4.0,72,0.00,,---,0.00,VWS V14.00,2013-03-04 05:02:00,
2013-03-03 21:08:00,50.2,41.5,29.79,NW,315,1.3,1.3,72,0.00,,---,0.00,VWS V14.00,2013-03-04 05:08:00,
2013-03-03 21:10:00,50.2,41.5,29.79,NW,315,2.0,2.0,72,0.00,,---,0.00,VWS V14.00,2013-03-04 05:10:00,
2013-03-03 21:15:00,50.2,41.9,29.79,NNW,338,2.7,2.7,73,0.00,,---,0.00,VWS V14.00,2013-03-04 05:15:00,
2013-03-03 21:20:00,50.2,41.9,29.79,NW,315,2.5,2.5,73,0.00,,---,0.00,VWS V14.00,2013-03-04 05:20:00,
2013-03-03 21:26:00,50.0,41.7,29.79,WNW,292,2.7,3.1,73,0.00,,---,0.00,VWS V14.00,2013-03-04 05:26:00,
2013-03-03 21:32:00,50.0,41.7,29.82,WSW,248,2.0,2.0,73,0.00,,---,0.00,VWS V14.00,2013-03-04 05:32:00,
2013-03-03 21:38:00,49.8,41.9,29.82,NW,315,2.9,2.9,74,0.00,,---,0.00,VWS V14.00,2013-03-04 05:38:00,
2013-03-03 21:43:00,49.8,41.9,29.82,SSW,202,0.0,0.0,74,0.00,,---,0.00,VWS V14.00,2013-03-04 05:43:00,
2013-03-03 21:48:00,49.8,41.9,29.82,West,270,1.1,1.1,74,0.00,,---,0.00,VWS V14.00,2013-03-04 05:48:00,
2013-03-03 21:53:00,49.8,41.9,29.82,NNW,338,2.5,3.1,74,0.00,,---,0.00,VWS V14.00,2013-03-04 05:53:00,
2013-03-03 21:58:00,49.8,41.9,29.82,NW,315,3.1,3.8,74,0.00,,---,0.00,VWS V14.00,2013-03-04 05:58:00,
2013-03-03 22:04:00,49.6,41.7,29.82,NW,315,1.6,1.6,74,0.00,,---,0.00,VWS V14.00,2013-03-04 06:04:00,
2013-03-03 22:09:00,49.6,41.7,29.82,NW,315,1.1,1.3,74,0.00,,---,0.00,VWS V14.00,2013-03-04 06:09:00,
2013-03-03 22:15:00,49.5,41.5,29.82,WNW,292,2.9,4.3,74,0.00,,---,0.00,VWS V14.00,2013-03-04 06:15:00,
2013-03-03 22:20:00,49.5,41.5,29.85,WNW,292,1.3,2.5,74,0.00,,---,0.00,VWS V14.00,2013-03-04 06:20:00,
2013-03-03 22:25:00,49.5,41.5,29.85,West,270,1.3,2.0,74,0.00,,---,0.00,VWS V14.00,2013-03-04 06:25:00,
2013-03-03 22:31:00,49.5,41.5,29.85,NW,315,2.7,2.7,74,0.00,,---,0.00,VWS V14.00,2013-03-04 06:31:00,
2013-03-03 22:37:00,49.3,41.4,29.85,West,270,2.5,3.4,74,0.00,,---,0.00,VWS V14.00,2013-03-04 06:37:00,
2013-03-03 22:42:00,49.3,41.7,29.85,NNW,338,3.4,4.0,75,0.00,,---,0.00,VWS V14.00,2013-03-04 06:42:00,
2013-03-03 22:47:00,49.3,41.7,29.85,WNW,292,1.1,2.0,75,0.00,,---,0.00,VWS V14.00,2013-03-04 06:47:00,
2013-03-03 22:53:00,49.3,41.7,29.88,WNW,292,1.3,2.0,75,0.00,,---,0.00,VWS V14.00,2013-03-04 06:53:00,
2013-03-03 22:58:00,49.3,42.0,29.88,NNW,338,2.5,2.5,76,0.00,,---,0.00,VWS V14.00,2013-03-04 06:58:00,
2013-03-03 23:04:00,49.3,42.0,29.85,NNW,338,1.3,2.2,76,0.00,,---,0.00,VWS V14.00,2013-03-04 07:04:00,
2013-03-03 23:09:00,49.5,42.2,29.85,NNW,338,2.2,2.7,76,0.00,,---,0.00,VWS V14.00,2013-03-04 07:09:00,
2013-03-03 23:14:00,49.5,42.2,29.85,NW,315,0.0,0.0,76,0.00,,---,0.00,VWS V14.00,2013-03-04 07:14:00,
2013-03-03 23:19:00,49.5,42.2,29.85,WNW,292,1.3,2.0,76,0.00,,---,0.00,VWS V14.00,2013-03-04 07:19:00,
2013-03-03 23:24:00,49.5,42.2,29.85,WNW,292,0.0,0.0,76,0.00,,---,0.00,VWS V14.00,2013-03-04 07:24:00,
2013-03-03 23:29:00,49.5,42.2,29.85,SSW,202,0.0,0.0,76,0.00,,---,0.00,VWS V14.00,2013-03-04 07:29:00,
2013-03-03 23:35:00,49.5,42.2,29.82,SSE,158,1.3,1.3,76,0.00,,---,0.00,VWS V14.00,2013-03-04 07:35:00,
2013-03-03 23:41:00,49.3,42.0,29.82,South,180,0.0,2.2,76,0.00,,---,0.00,VWS V14.00,2013-03-04 07:41:00,
2013-03-03 23:47:00,49.3,42.0,29.82,North,0,0.0,0.0,76,0.00,,---,0.00,VWS V14.00,2013-03-04 07:47:00,
2013-03-03 23:52:00,49.1,41.9,29.82,WSW,248,0.0,0.0,76,0.00,,---,0.00,VWS V14.00,2013-03-04 07:52:00,
2013-03-03 23:57:00,48.9,42.0,29.82,SW,225,0.9,1.3,77,0.00,,---,0.00,VWS V14.00,2013-03-04 07:57:00,